createdAt,value
2018-12-17T00:00:20.057Z,41.88
2018-12-17T00:00:52.781Z,39.18
2018-12-17T00:01:25.382Z,39.53
2018-12-17T00:01:58.081Z,39.35
2018-12-17T00:02:30.697Z,39.40
2018-12-17T00:03:03.405Z,42.13
2018-12-17T00:03:36.093Z,41.68
2018-12-17T00:04:08.676Z,39.40
2018-12-17T00:04:41.250Z,44.73
2018-12-17T00:05:13.865Z,45.65
2018-12-17T00:05:46.598Z,43.58
2018-12-17T00:06:19.433Z,42.70
2018-12-17T00:06:52.005Z,40.08
2018-12-17T00:07:24.598Z,43.60
2018-12-17T00:07:57.206Z,42.95
2018-12-17T00:08:32.152Z,46.30
2018-12-17T00:09:06.619Z,46.35
2018-12-17T00:09:39.198Z,39.90
2018-12-17T00:10:11.780Z,38.23
2018-12-17T00:10:44.394Z,43.75
2018-12-17T00:11:17.111Z,45.98
2018-12-17T00:11:49.705Z,42.27
2018-12-17T00:12:22.289Z,44.42
2018-12-17T00:12:54.887Z,40.80
2018-12-17T00:13:27.480Z,42.05
2018-12-17T00:14:00.080Z,37.38
2018-12-17T00:14:32.742Z,35.00
2018-12-17T00:15:05.614Z,38.30
2018-12-17T00:15:38.209Z,43.17
2018-12-17T00:16:10.790Z,41.98
2018-12-17T00:16:43.399Z,42.65
2018-12-17T00:17:15.989Z,45.08
2018-12-17T00:17:48.610Z,42.78
2018-12-17T00:18:21.175Z,43.13
2018-12-17T00:18:53.758Z,42.23
2018-12-17T00:19:26.336Z,39.88
2018-12-17T00:19:58.972Z,44.05
2018-12-17T00:20:31.565Z,38.50
2018-12-17T00:21:04.164Z,41.18
2018-12-17T00:21:36.751Z,40.45
2018-12-17T00:22:09.343Z,40.65
2018-12-17T00:22:41.919Z,43.98
2018-12-17T00:23:14.514Z,41.77
2018-12-17T00:23:47.097Z,42.00
2018-12-17T00:24:19.825Z,39.53
2018-12-17T00:24:52.413Z,40.03
2018-12-17T00:25:25.031Z,45.83
2018-12-17T00:25:57.614Z,46.35
2018-12-17T00:26:30.237Z,45.80
2018-12-17T00:27:02.889Z,44.25
2018-12-17T00:27:35.472Z,45.70
2018-12-17T00:28:08.393Z,44.77
2018-12-17T00:28:41.183Z,47.62
2018-12-17T00:29:13.898Z,46.92
2018-12-17T00:29:46.479Z,47.13
2018-12-17T00:30:19.083Z,41.60
2018-12-17T00:30:51.718Z,39.80
2018-12-17T00:31:24.443Z,39.25
2018-12-17T00:31:57.043Z,42.27
2018-12-17T00:32:29.625Z,45.83
2018-12-17T00:33:02.222Z,38.30
2018-12-17T00:33:35.011Z,42.20
2018-12-17T00:34:07.631Z,42.50
2018-12-17T00:34:40.233Z,39.75
2018-12-17T00:35:12.932Z,43.13
2018-12-17T00:35:45.500Z,42.05
2018-12-17T00:36:18.114Z,38.05
2018-12-17T00:36:50.697Z,44.80
2018-12-17T00:37:23.295Z,43.15
2018-12-17T00:37:55.884Z,39.63
2018-12-17T00:38:28.482Z,42.55
2018-12-17T00:39:01.095Z,43.70
2018-12-17T00:39:33.673Z,43.33
2018-12-17T00:40:07.028Z,46.83
2018-12-17T00:40:39.632Z,42.85
2018-12-17T00:41:12.218Z,35.60
2018-12-17T00:41:45.968Z,41.58
2018-12-17T00:42:18.543Z,44.25
2018-12-17T00:42:51.134Z,41.70
2018-12-17T00:43:23.847Z,41.40
2018-12-17T00:43:56.431Z,41.75
2018-12-17T00:44:29.038Z,45.48
2018-12-17T00:45:01.618Z,38.88
2018-12-17T00:45:34.238Z,49.18
2018-12-17T00:46:06.833Z,40.12
2018-12-17T00:46:39.401Z,44.30
2018-12-17T00:47:12.034Z,41.55
2018-12-17T00:47:44.648Z,44.25
2018-12-17T00:48:17.515Z,41.05
2018-12-17T00:48:50.072Z,41.48
2018-12-17T00:49:22.675Z,41.37
2018-12-17T00:49:55.283Z,40.80
2018-12-17T00:50:27.905Z,44.15
2018-12-17T00:51:00.523Z,37.78
2018-12-17T00:51:33.234Z,43.10
2018-12-17T00:52:05.842Z,39.70
2018-12-17T00:52:38.457Z,40.80
2018-12-17T00:53:11.033Z,41.75
2018-12-17T00:53:43.634Z,44.30
2018-12-17T00:54:16.236Z,42.13
2018-12-17T00:54:48.817Z,40.28
2018-12-17T00:55:21.550Z,40.43
2018-12-17T00:55:54.141Z,42.53
2018-12-17T00:56:26.717Z,46.28
2018-12-17T00:56:59.315Z,42.45
2018-12-17T00:57:32.026Z,48.08
2018-12-17T00:58:04.646Z,45.10
2018-12-17T00:58:37.244Z,40.65
2018-12-17T00:59:09.835Z,40.98
2018-12-17T00:59:42.426Z,42.03
2018-12-17T01:00:15.034Z,43.85
2018-12-17T01:00:47.631Z,48.35
2018-12-17T01:01:20.225Z,46.85
2018-12-17T01:01:52.822Z,45.05
2018-12-17T01:02:25.416Z,40.95
2018-12-17T01:02:58.020Z,39.05
2018-12-17T01:03:30.637Z,37.93
2018-12-17T01:04:03.366Z,43.95
2018-12-17T01:04:35.980Z,40.95
2018-12-17T01:05:08.700Z,42.30
2018-12-17T01:05:41.285Z,45.88
2018-12-17T01:06:13.900Z,44.55
2018-12-17T01:06:46.476Z,45.38
2018-12-17T01:07:23.621Z,42.10
2018-12-17T01:07:56.219Z,42.83
2018-12-17T01:08:28.972Z,44.50
2018-12-17T01:09:01.564Z,47.05
2018-12-17T01:09:34.150Z,50.25
2018-12-17T01:10:07.906Z,45.08
2018-12-17T01:10:40.506Z,44.30
2018-12-17T01:11:13.128Z,44.20
2018-12-17T01:11:45.694Z,45.98
2018-12-17T01:12:18.296Z,43.95
2018-12-17T01:12:50.882Z,41.85
2018-12-17T01:13:23.470Z,40.30
2018-12-17T01:13:56.049Z,44.95
2018-12-17T01:14:28.662Z,48.45
2018-12-17T01:15:01.245Z,41.00
2018-12-17T01:15:33.817Z,46.28
2018-12-17T01:16:06.847Z,40.03
2018-12-17T01:16:39.579Z,44.13
2018-12-17T01:17:12.149Z,48.60
2018-12-17T01:17:44.765Z,45.15
2018-12-17T01:18:17.745Z,41.18
2018-12-17T01:18:50.328Z,42.62
2018-12-17T01:19:22.921Z,42.88
2018-12-17T01:19:55.564Z,40.45
2018-12-17T01:20:28.173Z,44.10
2018-12-17T01:21:00.823Z,43.95
2018-12-17T01:21:33.574Z,42.20
2018-12-17T01:22:06.157Z,46.77
2018-12-17T01:22:38.737Z,39.85
2018-12-17T01:23:11.316Z,46.95
2018-12-17T01:23:44.005Z,38.78
2018-12-17T01:24:16.694Z,48.17
2018-12-17T01:24:49.272Z,45.17
2018-12-17T01:25:21.868Z,41.98
2018-12-17T01:25:54.584Z,43.28
2018-12-17T01:26:27.317Z,44.75
2018-12-17T01:26:59.887Z,47.05
2018-12-17T01:27:32.496Z,46.85
2018-12-17T01:28:05.068Z,43.10
2018-12-17T01:28:37.797Z,39.25
2018-12-17T01:29:10.381Z,46.60
2018-12-17T01:29:43.081Z,44.58
2018-12-17T01:30:15.677Z,42.73
2018-12-17T01:30:48.269Z,40.12
2018-12-17T01:31:20.940Z,43.70
2018-12-17T01:31:53.612Z,49.83
2018-12-17T01:32:26.262Z,46.13
2018-12-17T01:32:58.977Z,46.00
2018-12-17T01:33:31.567Z,44.40
2018-12-17T01:34:04.159Z,45.35
2018-12-17T01:34:36.745Z,40.90
2018-12-17T01:35:09.456Z,46.05
2018-12-17T01:35:42.056Z,50.67
2018-12-17T01:36:14.689Z,43.42
2018-12-17T01:36:47.282Z,42.60
2018-12-17T01:37:19.890Z,42.40
2018-12-17T01:37:52.486Z,44.93
2018-12-17T01:38:25.063Z,47.95
2018-12-17T01:38:57.646Z,41.40
2018-12-17T01:39:30.223Z,47.17
2018-12-17T01:40:03.065Z,41.05
2018-12-17T01:40:35.672Z,43.33
2018-12-17T01:41:08.261Z,43.73
2018-12-17T01:41:41.367Z,40.63
2018-12-17T01:42:13.963Z,47.58
2018-12-17T01:42:46.577Z,44.85
2018-12-17T01:43:19.158Z,44.18
2018-12-17T01:43:51.751Z,45.40
2018-12-17T01:44:24.341Z,45.55
2018-12-17T01:44:56.928Z,39.48
2018-12-17T01:45:29.534Z,46.33
2018-12-17T01:46:02.100Z,43.70
2018-12-17T01:46:34.676Z,44.50
2018-12-17T01:47:07.422Z,42.53
2018-12-17T01:47:40.017Z,45.30
2018-12-17T01:48:12.585Z,51.13
2018-12-17T01:48:45.160Z,45.28
2018-12-17T01:49:17.742Z,49.23
2018-12-17T01:49:50.332Z,43.80
2018-12-17T01:50:22.900Z,43.28
2018-12-17T01:50:55.492Z,40.90
2018-12-17T01:51:28.087Z,50.03
2018-12-17T01:52:00.682Z,44.35
2018-12-17T01:52:33.278Z,50.80
2018-12-17T01:53:05.887Z,42.93
2018-12-17T01:53:38.499Z,43.73
2018-12-17T01:54:11.094Z,49.00
2018-12-17T01:54:43.674Z,48.65
2018-12-17T01:55:16.264Z,39.88
2018-12-17T01:55:48.866Z,45.67
2018-12-17T01:56:21.459Z,42.70
2018-12-17T01:56:54.012Z,48.65
2018-12-17T01:57:26.603Z,46.37
2018-12-17T01:57:59.203Z,44.85
2018-12-17T01:58:31.786Z,48.35
2018-12-17T01:59:04.505Z,49.53
2018-12-17T01:59:37.093Z,45.03
2018-12-17T02:00:09.820Z,49.15
2018-12-17T02:00:42.405Z,44.90
2018-12-17T02:01:14.993Z,48.78
2018-12-17T02:01:47.591Z,47.88
2018-12-17T02:02:20.301Z,50.00
2018-12-17T02:02:52.887Z,47.83
2018-12-17T02:03:25.516Z,51.65
2018-12-17T02:03:58.130Z,44.33
2018-12-17T02:04:30.711Z,44.53
2018-12-17T02:05:03.616Z,48.68
2018-12-17T02:05:36.221Z,43.38
2018-12-17T02:06:08.851Z,51.80
2018-12-17T02:06:41.419Z,47.60
2018-12-17T02:07:15.273Z,52.10
2018-12-17T02:07:48.120Z,48.73
2018-12-17T02:08:20.709Z,45.95
2018-12-17T02:08:53.323Z,50.80
2018-12-17T02:09:25.915Z,46.77
2018-12-17T02:09:58.493Z,48.52
2018-12-17T02:10:31.089Z,45.83
2018-12-17T02:11:04.679Z,43.98
2018-12-17T02:11:37.301Z,50.63
2018-12-17T02:12:09.866Z,44.80
2018-12-17T02:12:42.454Z,50.20
2018-12-17T02:13:15.082Z,47.30
2018-12-17T02:13:47.749Z,47.62
2018-12-17T02:14:20.377Z,48.48
2018-12-17T02:14:52.973Z,49.18
2018-12-17T02:15:25.548Z,47.80
2018-12-17T02:15:58.198Z,46.70
2018-12-17T02:16:30.860Z,45.73
2018-12-17T02:17:03.573Z,51.80
2018-12-17T02:17:36.180Z,51.77
2018-12-17T02:18:08.773Z,48.23
2018-12-17T02:18:41.366Z,42.70
2018-12-17T02:19:13.936Z,48.30
2018-12-17T02:19:46.566Z,54.30
2018-12-17T02:20:19.156Z,48.78
2018-12-17T02:20:51.894Z,48.40
2018-12-17T02:21:24.456Z,43.58
2018-12-17T02:21:57.040Z,54.25
2018-12-17T02:22:29.624Z,51.73
2018-12-17T02:23:02.205Z,50.78
2018-12-17T02:23:34.785Z,49.70
2018-12-17T02:24:07.380Z,53.28
2018-12-17T02:24:39.999Z,49.70
2018-12-17T02:25:12.621Z,42.50
2018-12-17T02:25:45.204Z,53.23
2018-12-17T02:26:17.772Z,51.83
2018-12-17T02:26:50.342Z,49.05
2018-12-17T02:27:22.937Z,54.85
2018-12-17T02:27:55.554Z,52.50
2018-12-17T02:28:28.180Z,52.75
2018-12-17T02:29:00.778Z,47.88
2018-12-17T02:29:33.361Z,60.80
2018-12-17T02:30:06.253Z,48.08
2018-12-17T02:30:38.855Z,47.23
2018-12-17T02:31:11.567Z,53.52
2018-12-17T02:31:44.141Z,52.08
2018-12-17T02:32:16.720Z,45.92
2018-12-17T02:32:49.293Z,51.48
2018-12-17T02:33:21.889Z,54.53
2018-12-17T02:33:54.452Z,49.38
2018-12-17T02:34:27.269Z,54.40
2018-12-17T02:34:59.864Z,47.98
2018-12-17T02:35:32.434Z,47.93
2018-12-17T02:36:05.185Z,49.88
2018-12-17T02:36:37.774Z,50.83
2018-12-17T02:37:10.385Z,47.80
2018-12-17T02:37:42.963Z,52.65
2018-12-17T02:38:15.530Z,50.58
2018-12-17T02:38:48.114Z,48.75
2018-12-17T02:39:21.264Z,52.23
2018-12-17T02:39:53.909Z,52.15
2018-12-17T02:40:26.559Z,53.25
2018-12-17T02:40:59.136Z,50.65
2018-12-17T02:41:31.777Z,48.73
2018-12-17T02:42:04.364Z,49.67
2018-12-17T02:42:36.926Z,55.15
2018-12-17T02:43:09.514Z,50.38
2018-12-17T02:43:42.113Z,47.10
2018-12-17T02:44:14.843Z,47.88
2018-12-17T02:44:47.412Z,55.00
2018-12-17T02:45:19.973Z,55.20
2018-12-17T02:45:52.556Z,52.17
2018-12-17T02:46:25.137Z,49.77
2018-12-17T02:46:57.765Z,52.15
2018-12-17T02:47:30.376Z,50.38
2018-12-17T02:48:02.952Z,58.58
2018-12-17T02:48:35.507Z,54.10
2018-12-17T02:49:08.526Z,51.98
2018-12-17T02:49:41.116Z,48.78
2018-12-17T02:50:13.715Z,49.13
2018-12-17T02:50:46.275Z,49.67
2018-12-17T02:51:18.861Z,52.05
2018-12-17T02:51:51.434Z,56.65
2018-12-17T02:52:24.043Z,49.35
2018-12-17T02:52:56.617Z,50.63
2018-12-17T02:53:29.218Z,49.95
2018-12-17T02:54:01.808Z,57.20
2018-12-17T02:54:34.509Z,51.50
2018-12-17T02:55:07.338Z,48.20
2018-12-17T02:55:39.926Z,55.17
2018-12-17T02:56:12.526Z,49.18
2018-12-17T02:56:45.110Z,50.58
2018-12-17T02:57:17.686Z,51.88
2018-12-17T02:57:50.300Z,52.10
2018-12-17T02:58:22.904Z,52.25
2018-12-17T02:58:55.495Z,50.33
2018-12-17T02:59:28.077Z,48.28
2018-12-17T03:00:00.666Z,50.67
2018-12-17T03:00:33.266Z,51.68
2018-12-17T03:01:05.857Z,49.48
2018-12-17T03:01:38.467Z,48.20
2018-12-17T03:02:11.065Z,48.15
2018-12-17T03:02:43.671Z,53.75
2018-12-17T03:03:16.511Z,50.08
2018-12-17T03:03:49.099Z,48.63
2018-12-17T03:04:21.689Z,54.03
2018-12-17T03:04:54.280Z,51.30
2018-12-17T03:05:26.866Z,53.10
2018-12-17T03:05:59.451Z,50.08
2018-12-17T03:06:32.049Z,46.55
2018-12-17T03:07:04.661Z,51.10
2018-12-17T03:07:37.237Z,48.73
2018-12-17T03:08:09.813Z,58.05
2018-12-17T03:08:42.428Z,47.67
2018-12-17T03:09:15.026Z,50.15
2018-12-17T03:09:47.633Z,52.83
2018-12-17T03:10:20.215Z,52.75
2018-12-17T03:10:52.933Z,50.10
2018-12-17T03:11:25.513Z,54.35
2018-12-17T03:11:58.152Z,52.95
2018-12-17T03:12:30.731Z,54.48
2018-12-17T03:13:03.355Z,47.88
2018-12-17T03:13:35.940Z,54.03
2018-12-17T03:14:08.571Z,51.92
2018-12-17T03:14:41.136Z,49.48
2018-12-17T03:15:13.732Z,49.55
2018-12-17T03:15:46.325Z,51.58
2018-12-17T03:16:18.916Z,54.08
2018-12-17T03:16:51.516Z,50.33
2018-12-17T03:17:24.126Z,53.25
2018-12-17T03:17:56.720Z,49.83
2018-12-17T03:18:29.430Z,53.75
2018-12-17T03:19:02.005Z,51.05
2018-12-17T03:19:34.594Z,52.25
2018-12-17T03:20:07.440Z,52.10
2018-12-17T03:20:40.028Z,52.75
2018-12-17T03:21:12.617Z,49.70
2018-12-17T03:21:45.242Z,56.98
2018-12-17T03:22:17.820Z,49.50
2018-12-17T03:22:50.414Z,54.38
2018-12-17T03:23:22.993Z,50.50
2018-12-17T03:23:55.629Z,54.65
2018-12-17T03:24:28.193Z,55.33
2018-12-17T03:25:00.819Z,52.88
2018-12-17T03:25:33.417Z,56.08
2018-12-17T03:26:05.991Z,54.40
2018-12-17T03:26:38.597Z,52.58
2018-12-17T03:27:11.152Z,49.48
2018-12-17T03:27:43.770Z,51.23
2018-12-17T03:28:16.334Z,57.93
2018-12-17T03:28:51.918Z,53.10
2018-12-17T03:29:23.531Z,53.40
2018-12-17T03:29:56.130Z,53.73
2018-12-17T03:30:28.855Z,52.60
2018-12-17T03:31:01.502Z,49.95
2018-12-17T03:31:34.208Z,55.45
2018-12-17T03:32:06.815Z,48.63
2018-12-17T03:32:39.450Z,48.17
2018-12-17T03:33:12.052Z,54.18
2018-12-17T03:33:44.642Z,51.73
2018-12-17T03:34:17.229Z,53.83
2018-12-17T03:34:49.805Z,57.08
2018-12-17T03:35:22.402Z,61.65
2018-12-17T03:35:55.033Z,52.85
2018-12-17T03:36:27.640Z,50.12
2018-12-17T03:37:00.365Z,58.08
2018-12-17T03:37:32.985Z,55.58
2018-12-17T03:38:05.553Z,56.05
2018-12-17T03:38:38.134Z,50.95
2018-12-17T03:39:10.735Z,54.03
2018-12-17T03:39:43.306Z,52.88
2018-12-17T03:40:15.877Z,50.60
2018-12-17T03:40:48.514Z,54.50
2018-12-17T03:41:21.240Z,52.25
2018-12-17T03:41:53.838Z,54.33
2018-12-17T03:42:26.427Z,53.35
2018-12-17T03:42:59.011Z,49.75
2018-12-17T03:43:31.611Z,51.98
2018-12-17T03:44:04.225Z,53.55
2018-12-17T03:44:36.825Z,59.33
2018-12-17T03:45:09.550Z,52.73
2018-12-17T03:45:42.151Z,56.60
2018-12-17T03:46:14.738Z,52.67
2018-12-17T03:46:47.360Z,47.95
2018-12-17T03:47:19.943Z,53.10
2018-12-17T03:47:52.538Z,52.70
2018-12-17T03:48:25.126Z,58.25
2018-12-17T03:48:57.704Z,51.53
2018-12-17T03:49:30.293Z,50.25
2018-12-17T03:50:03.272Z,53.68
2018-12-17T03:50:35.872Z,50.90
2018-12-17T03:51:08.437Z,49.20
2018-12-17T03:51:41.026Z,52.75
2018-12-17T03:52:13.609Z,49.55
2018-12-17T03:52:46.205Z,50.17
2018-12-17T03:53:18.788Z,50.78
2018-12-17T03:53:51.367Z,49.93
2018-12-17T03:54:23.951Z,48.55
2018-12-17T03:54:56.547Z,49.33
2018-12-17T03:55:29.151Z,52.90
2018-12-17T03:56:01.717Z,56.65
2018-12-17T03:56:34.310Z,52.78
2018-12-17T03:57:06.922Z,51.90
2018-12-17T03:57:39.496Z,54.65
2018-12-17T03:58:12.065Z,52.85
2018-12-17T03:58:44.634Z,48.98
2018-12-17T03:59:17.219Z,51.88
2018-12-17T03:59:49.816Z,57.58
2018-12-17T04:00:22.401Z,49.60
2018-12-17T04:00:55.047Z,51.63
2018-12-17T04:01:27.621Z,60.05
2018-12-17T04:02:00.210Z,52.33
2018-12-17T04:02:33.062Z,50.05
2018-12-17T04:03:05.673Z,49.83
2018-12-17T04:03:38.299Z,55.95
2018-12-17T04:04:10.971Z,58.42
2018-12-17T04:04:43.758Z,48.58
2018-12-17T04:05:16.340Z,53.65
2018-12-17T04:05:48.927Z,52.58
2018-12-17T04:06:21.588Z,55.33
2018-12-17T04:06:54.178Z,53.23
2018-12-17T04:07:26.777Z,53.05
2018-12-17T04:07:59.364Z,56.02
2018-12-17T04:08:31.980Z,54.58
2018-12-17T04:09:05.973Z,58.80
2018-12-17T04:09:38.569Z,62.88
2018-12-17T04:10:11.154Z,55.50
2018-12-17T04:10:43.756Z,59.23
2018-12-17T04:11:16.338Z,53.90
2018-12-17T04:11:48.908Z,64.35
2018-12-17T04:12:21.516Z,55.92
2018-12-17T04:12:54.249Z,50.28
2018-12-17T04:13:26.889Z,51.92
2018-12-17T04:13:59.503Z,53.28
2018-12-17T04:14:32.145Z,54.67
2018-12-17T04:15:04.988Z,51.73
2018-12-17T04:15:37.714Z,51.70
2018-12-17T04:16:10.323Z,58.30
2018-12-17T04:16:42.935Z,53.42
2018-12-17T04:17:15.541Z,54.00
2018-12-17T04:17:48.133Z,53.40
2018-12-17T04:18:21.049Z,51.85
2018-12-17T04:18:53.655Z,54.10
2018-12-17T04:19:26.257Z,52.62
2018-12-17T04:19:58.833Z,54.05
2018-12-17T04:20:31.447Z,55.30
2018-12-17T04:21:04.050Z,50.43
2018-12-17T04:21:36.636Z,50.45
2018-12-17T04:22:09.232Z,51.23
2018-12-17T04:22:41.810Z,57.65
2018-12-17T04:23:14.407Z,51.85
2018-12-17T04:23:47.022Z,56.40
2018-12-17T04:24:19.629Z,51.08
2018-12-17T04:24:52.236Z,52.78
2018-12-17T04:25:24.822Z,55.95
2018-12-17T04:25:57.481Z,54.58
2018-12-17T04:26:30.084Z,47.75
2018-12-17T04:27:02.667Z,63.13
2018-12-17T04:27:35.266Z,51.55
2018-12-17T04:28:09.689Z,56.28
2018-12-17T04:28:42.286Z,49.88
2018-12-17T04:29:14.894Z,63.63
2018-12-17T04:29:47.466Z,49.83
2018-12-17T04:30:20.091Z,53.90
2018-12-17T04:30:52.660Z,53.90
2018-12-17T04:31:25.273Z,51.30
2018-12-17T04:31:57.834Z,51.90
2018-12-17T04:32:30.446Z,54.33
2018-12-17T04:33:03.047Z,50.85
2018-12-17T04:33:35.642Z,55.45
2018-12-17T04:34:08.232Z,53.70
2018-12-17T04:34:40.835Z,56.35
2018-12-17T04:35:13.433Z,54.67
2018-12-17T04:35:46.039Z,52.00
2018-12-17T04:36:18.625Z,53.75
2018-12-17T04:36:51.248Z,60.08
2018-12-17T04:37:23.843Z,57.88
2018-12-17T04:37:56.446Z,51.40
2018-12-17T04:38:29.038Z,55.55
2018-12-17T04:39:01.625Z,54.50
2018-12-17T04:39:34.231Z,49.80
2018-12-17T04:40:07.079Z,54.18
2018-12-17T04:40:39.674Z,55.67
2018-12-17T04:41:12.297Z,58.70
2018-12-17T04:41:44.956Z,62.67
2018-12-17T04:42:17.537Z,58.65
2018-12-17T04:42:50.139Z,50.50
2018-12-17T04:43:22.747Z,51.42
2018-12-17T04:43:55.331Z,48.78
2018-12-17T04:44:27.918Z,54.77
2018-12-17T04:45:00.477Z,49.05
2018-12-17T04:45:33.061Z,51.63
2018-12-17T04:46:07.169Z,52.13
2018-12-17T04:46:39.900Z,58.48
2018-12-17T04:47:12.487Z,49.25
2018-12-17T04:47:45.125Z,56.75
2018-12-17T04:48:17.826Z,52.95
2018-12-17T04:48:50.406Z,56.30
2018-12-17T04:49:22.997Z,52.45
2018-12-17T04:49:55.584Z,49.33
2018-12-17T04:50:28.176Z,58.40
2018-12-17T04:51:00.763Z,57.62
2018-12-17T04:51:33.364Z,58.50
2018-12-17T04:52:05.975Z,55.65
2018-12-17T04:52:38.586Z,54.48
2018-12-17T04:53:11.167Z,53.95
2018-12-17T04:53:43.767Z,49.58
2018-12-17T04:54:16.360Z,58.80
2018-12-17T04:54:48.940Z,60.73
2018-12-17T04:55:21.550Z,53.68
2018-12-17T04:55:54.143Z,62.30
2018-12-17T04:56:26.712Z,58.83
2018-12-17T04:56:59.305Z,53.15
2018-12-17T04:57:32.450Z,56.63
2018-12-17T04:58:05.272Z,50.08
2018-12-17T04:58:37.853Z,52.48
2018-12-17T04:59:14.544Z,59.73
2018-12-17T04:59:45.091Z,53.95
2018-12-17T05:00:17.789Z,55.38
2018-12-17T05:00:50.407Z,56.85
2018-12-17T05:01:22.976Z,53.78
2018-12-17T05:01:55.554Z,58.40
2018-12-17T05:02:28.157Z,60.45
2018-12-17T05:03:00.756Z,56.08
2018-12-17T05:03:33.374Z,55.48
2018-12-17T05:04:05.957Z,54.48
2018-12-17T05:04:38.556Z,54.75
2018-12-17T05:05:11.160Z,60.23
2018-12-17T05:05:43.785Z,55.00
2018-12-17T05:06:16.494Z,49.18
2018-12-17T05:06:49.102Z,59.03
2018-12-17T05:07:21.705Z,53.95
2018-12-17T05:07:54.279Z,55.95
2018-12-17T05:08:26.897Z,60.45
2018-12-17T05:08:59.484Z,60.38
2018-12-17T05:09:32.091Z,57.70
2018-12-17T05:10:05.505Z,52.73
2018-12-17T05:10:38.186Z,48.20
2018-12-17T05:11:10.755Z,65.03
2018-12-17T05:11:43.358Z,58.45
2018-12-17T05:12:15.974Z,56.28
2018-12-17T05:12:48.602Z,54.90
2018-12-17T05:13:21.209Z,55.08
2018-12-17T05:13:53.857Z,52.20
2018-12-17T05:14:26.440Z,53.25
2018-12-17T05:14:59.026Z,55.98
2018-12-17T05:15:31.608Z,57.62
2018-12-17T05:16:04.355Z,54.70
2018-12-17T05:16:37.101Z,61.08
2018-12-17T05:17:09.680Z,51.68
2018-12-17T05:17:42.276Z,62.98
2018-12-17T05:18:14.857Z,59.90
2018-12-17T05:18:47.437Z,56.85
2018-12-17T05:19:20.044Z,60.08
2018-12-17T05:19:52.633Z,49.23
2018-12-17T05:20:25.230Z,59.93
2018-12-17T05:20:57.830Z,55.20
2018-12-17T05:21:30.430Z,59.73
2018-12-17T05:22:03.030Z,53.13
2018-12-17T05:22:35.614Z,53.17
2018-12-17T05:23:08.211Z,55.15
2018-12-17T05:23:40.813Z,57.70
2018-12-17T05:24:13.392Z,52.17
2018-12-17T05:24:46.019Z,52.33
2018-12-17T05:25:18.605Z,52.30
2018-12-17T05:25:51.214Z,56.85
2018-12-17T05:26:23.823Z,62.35
2018-12-17T05:26:56.419Z,55.73
2018-12-17T05:27:29.012Z,63.05
2018-12-17T05:28:01.606Z,51.77
2018-12-17T05:28:34.186Z,56.02
2018-12-17T05:29:06.770Z,59.13
2018-12-17T05:29:39.793Z,63.68
2018-12-17T05:30:12.555Z,59.33
2018-12-17T05:30:45.146Z,57.48
2018-12-17T05:31:17.750Z,52.98
2018-12-17T05:31:50.356Z,59.58
2018-12-17T05:32:22.943Z,60.67
2018-12-17T05:32:55.523Z,57.08
2018-12-17T05:33:28.126Z,54.58
2018-12-17T05:34:00.731Z,62.93
2018-12-17T05:34:33.323Z,56.15
2018-12-17T05:35:05.940Z,58.48
2018-12-17T05:35:38.544Z,55.98
2018-12-17T05:36:11.249Z,60.63
2018-12-17T05:36:43.831Z,55.15
2018-12-17T05:37:16.437Z,53.08
2018-12-17T05:37:49.033Z,55.15
2018-12-17T05:38:21.599Z,49.70
2018-12-17T05:38:54.189Z,53.15
2018-12-17T05:39:26.775Z,51.42
2018-12-17T05:39:59.499Z,57.50
2018-12-17T05:40:32.077Z,54.45
2018-12-17T05:41:04.711Z,50.78
2018-12-17T05:41:37.275Z,51.33
2018-12-17T05:42:09.861Z,56.63
2018-12-17T05:42:42.461Z,51.88
2018-12-17T05:43:15.042Z,54.83
2018-12-17T05:43:47.623Z,53.38
2018-12-17T05:44:20.198Z,59.25
2018-12-17T05:44:52.772Z,56.53
2018-12-17T05:45:25.372Z,51.60
2018-12-17T05:45:57.976Z,52.65
2018-12-17T05:46:30.585Z,56.73
2018-12-17T05:47:03.185Z,57.05
2018-12-17T05:47:35.757Z,58.60
2018-12-17T05:48:08.347Z,56.88
2018-12-17T05:48:40.921Z,53.65
2018-12-17T05:49:13.514Z,48.20
2018-12-17T05:49:46.097Z,55.12
2018-12-17T05:50:18.699Z,56.55
2018-12-17T05:50:51.302Z,51.05
2018-12-17T05:51:23.910Z,51.33
2018-12-17T05:51:56.915Z,58.90
2018-12-17T05:52:31.170Z,54.40
2018-12-17T05:53:03.892Z,51.00
2018-12-17T05:53:36.484Z,51.00
2018-12-17T05:54:09.077Z,52.78
2018-12-17T05:54:41.674Z,56.50
2018-12-17T05:55:14.332Z,50.25
2018-12-17T05:55:46.985Z,56.50
2018-12-17T05:56:19.569Z,45.80
2018-12-17T05:56:52.162Z,54.83
2018-12-17T05:57:24.787Z,49.50
2018-12-17T05:57:57.368Z,54.48
2018-12-17T05:58:29.979Z,52.53
2018-12-17T05:59:02.670Z,48.50
2018-12-17T05:59:35.279Z,52.43
2018-12-17T06:00:08.303Z,60.98
2018-12-17T06:00:40.902Z,64.00
2018-12-17T06:01:13.479Z,55.90
2018-12-17T06:01:46.090Z,63.90
2018-12-17T06:02:18.688Z,59.73
2018-12-17T06:02:51.306Z,55.70
2018-12-17T06:03:23.893Z,60.25
2018-12-17T06:04:43.463Z,64.62
2018-12-17T06:05:16.062Z,56.65
2018-12-17T06:05:48.663Z,57.78
2018-12-17T06:06:21.254Z,55.92
2018-12-17T06:06:53.865Z,54.30
2018-12-17T06:07:28.059Z,62.53
2018-12-17T06:08:00.683Z,59.73
2018-12-17T06:08:33.252Z,62.60
2018-12-17T06:09:09.509Z,61.53
2018-12-17T06:09:42.111Z,64.65
2018-12-17T06:10:14.722Z,57.15
2018-12-17T06:10:47.436Z,62.90
2018-12-17T06:11:20.034Z,62.48
2018-12-17T06:11:52.649Z,60.78
2018-12-17T06:12:25.242Z,58.28
2018-12-17T06:12:57.849Z,58.92
2018-12-17T06:13:30.491Z,54.45
2018-12-17T06:14:03.327Z,58.48
2018-12-17T06:14:35.957Z,61.95
2018-12-17T06:15:08.694Z,64.32
2018-12-17T06:15:41.269Z,53.50
2018-12-17T06:16:13.999Z,52.48
2018-12-17T06:16:46.726Z,52.67
2018-12-17T06:17:19.301Z,58.83
2018-12-17T06:17:51.885Z,57.65
2018-12-17T06:18:24.470Z,59.77
2018-12-17T06:18:57.092Z,51.35
2018-12-17T06:19:29.699Z,51.37
2018-12-17T06:20:02.950Z,54.40
2018-12-17T06:20:35.516Z,60.55
2018-12-17T06:21:08.106Z,56.05
2018-12-17T06:21:40.703Z,59.60
2018-12-17T06:22:13.290Z,50.73
2018-12-17T06:22:45.870Z,56.83
2018-12-17T06:23:18.450Z,57.03
2018-12-17T06:23:51.004Z,59.20
2018-12-17T06:24:23.637Z,64.15
2018-12-17T06:24:56.234Z,51.33
2018-12-17T06:25:28.829Z,56.88
2018-12-17T06:26:01.464Z,58.68
2018-12-17T06:26:34.078Z,49.53
2018-12-17T06:27:06.692Z,53.17
2018-12-17T06:27:39.314Z,54.55
2018-12-17T06:28:11.924Z,55.90
2018-12-17T06:28:44.504Z,55.52
2018-12-17T06:29:17.118Z,50.10
2018-12-17T06:29:49.857Z,50.50
2018-12-17T06:30:22.433Z,54.10
2018-12-17T06:30:55.003Z,52.90
2018-12-17T06:31:27.598Z,54.55
2018-12-17T06:32:00.176Z,54.58
2018-12-17T06:32:32.779Z,53.73
2018-12-17T06:33:05.960Z,64.55
2018-12-17T06:33:38.798Z,54.67
2018-12-17T06:34:11.413Z,56.35
2018-12-17T06:34:43.999Z,55.60
2018-12-17T06:35:16.618Z,56.70
2018-12-17T06:35:49.192Z,61.80
2018-12-17T06:36:21.760Z,58.30
2018-12-17T06:36:54.354Z,52.98
2018-12-17T06:37:26.934Z,57.38
2018-12-17T06:37:59.543Z,55.23
2018-12-17T06:38:32.152Z,58.98
2018-12-17T06:39:07.144Z,54.58
2018-12-17T06:39:39.727Z,55.08
2018-12-17T06:40:12.334Z,56.58
2018-12-17T06:40:44.968Z,53.10
2018-12-17T06:41:17.582Z,56.53
2018-12-17T06:41:50.463Z,56.00
2018-12-17T06:42:23.050Z,53.42
2018-12-17T06:42:55.660Z,54.50
2018-12-17T06:43:28.241Z,57.55
2018-12-17T06:44:00.835Z,52.53
2018-12-17T06:44:33.417Z,56.37
2018-12-17T06:45:06.148Z,50.85
2018-12-17T06:45:38.737Z,54.98
2018-12-17T06:46:11.386Z,58.00
2018-12-17T06:46:43.978Z,57.85
2018-12-17T06:47:16.557Z,56.40
2018-12-17T06:47:49.170Z,56.63
2018-12-17T06:48:21.763Z,56.63
2018-12-17T06:48:54.344Z,58.05
2018-12-17T06:49:26.925Z,53.68
2018-12-17T06:49:59.510Z,56.35
2018-12-17T06:50:32.106Z,54.65
2018-12-17T06:51:04.718Z,52.80
2018-12-17T06:51:37.515Z,54.50
2018-12-17T06:52:10.122Z,55.38
2018-12-17T06:52:42.695Z,53.45
2018-12-17T06:53:15.272Z,60.15
2018-12-17T06:53:47.850Z,62.98
2018-12-17T06:54:21.105Z,56.73
2018-12-17T06:54:54.950Z,58.28
2018-12-17T06:55:27.824Z,53.15
2018-12-17T06:56:00.412Z,52.55
2018-12-17T06:56:32.985Z,55.12
2018-12-17T06:57:05.600Z,55.75
2018-12-17T06:57:38.312Z,57.83
2018-12-17T06:58:11.037Z,62.27
2018-12-17T06:58:43.647Z,57.88
2018-12-17T06:59:16.237Z,58.60
2018-12-17T06:59:48.836Z,59.20
2018-12-17T07:00:21.445Z,59.63
2018-12-17T07:00:54.229Z,53.33
2018-12-17T07:01:28.169Z,55.80